CMB802 Details

Departure: Joint Base McGuire Dix Lakehurst (KWRI)
Arrival: Norfolk Naval Station (Chambers Field) (KNGU) at N/A
Route: SIE V139 SWL
Notes: USTRANSCOM CONTRACT FLIGHT


Current Weather Information
KWRI 251056Z AUTO 02009KT 10SM CLR 16/14 A3022 RMK AO2 SLP233 T01630139 $
KNGU 251059Z 04014G20KT 10SM FEW055 OVC080 23/14 A3012 RMK AO2 SLP200 T02280144 $